Time;durP1;ratioP1;P1;durP2;ratioP2;P2;SDS_P1;SDS_P2;PMS_P1;PMS_P2;Temp;Humidity;BMP_temperature;BMP_pressure;BME280_temperature;BME280_humidity;BME280_pressure;Samples;Min_cycle;Max_cycle;Signal;HPM_P1;HPM_P2
2023/03/23 00:00:57;;;;;;;;;;;13.90;99.90;;;;;;6224445;23;19913;-83
2023/03/23 00:03:25;;;;;;;;;;;13.90;99.90;;;;;;6224003;23;20047;-81
2023/03/23 00:05:51;;;;;;;;;;;13.90;99.90;;;;;;6123656;23;19978;-82
2023/03/23 00:08:17;;;;;;;;;;;13.90;99.90;;;;;;6224291;23;19909;-82
2023/03/23 00:10:43;;;;;;;;;;;13.90;99.90;;;;;;6122284;23;19984;-81
2023/03/23 00:13:10;;;;;;;;;;;13.80;99.90;;;;;;6223492;23;19905;-81
2023/03/23 00:15:41;;;;;;;;;;;13.90;99.90;;;;;;6224071;23;20361;-81
2023/03/23 00:18:06;;;;;;;;;;;14.00;99.90;;;;;;6123273;23;19956;-81
2023/03/23 00:20:40;;;;;;;;;;;14.00;99.90;;;;;;6250531;22;20323;-82
2023/03/23 00:23:06;;;;;;;;;;;14.00;99.90;;;;;;6225461;23;19944;-81
2023/03/23 00:25:32;;;;;;;;;;;13.90;99.90;;;;;;6124181;23;19912;-81
2023/03/23 00:27:57;;;;;;;;;;;13.90;99.90;;;;;;6226343;23;19992;-81
2023/03/23 00:30:23;;;;;;;;;;;13.90;99.90;;;;;;6226409;23;20327;-81
2023/03/23 00:32:50;;;;;;;;;;;13.90;99.90;;;;;;6225666;23;19909;-81
2023/03/23 00:35:17;;;;;;;;;;;13.90;99.90;;;;;;6251672;22;19905;-82
2023/03/23 00:37:43;;;;;;;;;;;13.90;99.90;;;;;;6122918;23;19905;-81
2023/03/23 00:40:10;;;;;;;;;;;14.00;99.90;;;;;;6225669;23;19932;-81
2023/03/23 00:42:36;;;;;;;;;;;14.00;99.90;;;;;;6225216;23;20331;-81
2023/03/23 00:45:03;;;;;;;;;;;14.00;99.90;;;;;;6226497;23;19950;-80
2023/03/23 00:47:30;;;;;;;;;;;14.00;99.90;;;;;;6225117;22;20304;-81
2023/03/23 00:49:56;;;;;;;;;;;14.00;99.90;;;;;;6226478;23;19928;-81
2023/03/23 00:52:21;;;;;;;;;;;14.00;99.90;;;;;;6225225;23;19905;-80
2023/03/23 00:54:47;;;;;;;;;;;14.00;99.90;;;;;;6225410;23;19913;-81
2023/03/23 00:57:12;;;;;;;;;;;13.90;99.90;;;;;;6225912;22;19944;-81
2023/03/23 00:59:38;;;;;;;;;;;13.90;99.90;;;;;;6123085;23;19905;-81
2023/03/23 01:02:03;;;;;;;;;;;13.90;99.90;;;;;;6224768;23;19905;-82
2023/03/23 01:04:31;;;;;;;;;;;13.90;99.90;;;;;;6250535;22;19940;-81
2023/03/23 01:06:56;;;;;;;;;;;13.90;99.90;;;;;;6122793;23;19909;-81
2023/03/23 01:09:22;;;;;;;;;;;13.90;99.90;;;;;;6123680;23;20307;-81
2023/03/23 01:11:48;;;;;;;;;;;14.00;99.90;;;;;;6122806;23;19911;-81
2023/03/23 01:14:15;;;;;;;;;;;14.00;99.90;;;;;;6234216;23;19912;-80
2023/03/23 01:16:41;;;;;;;;;;;14.00;99.90;;;;;;6134338;23;19933;-82
2023/03/23 01:19:06;;;;;;;;;;;14.00;99.90;;;;;;6229773;23;19916;-81
2023/03/23 01:21:32;;;;;;;;;;;14.00;99.90;;;;;;6127873;23;20247;-81
2023/03/23 01:23:57;;;;;;;;;;;13.80;99.90;;;;;;6255293;22;19916;-81
2023/03/23 01:26:24;;;;;;;;;;;13.80;99.90;;;;;;6229457;22;19928;-82
2023/03/23 01:28:50;;;;;;;;;;;13.70;99.90;;;;;;6228653;23;19905;-82
2023/03/23 01:31:17;;;;;;;;;;;13.60;99.90;;;;;;6228827;23;19905;-81
2023/03/23 01:33:43;;;;;;;;;;;13.50;99.90;;;;;;6229320;23;19905;-82
2023/03/23 01:36:13;;;;;;;;;;;13.40;99.90;;;;;;6229060;22;19928;-81
2023/03/23 01:38:39;;;;;;;;;;;13.30;99.90;;;;;;6228716;23;19909;-81
2023/03/23 01:41:04;;;;;;;;;;;13.10;99.90;;;;;;6126748;23;20220;-82
2023/03/23 01:43:30;;;;;;;;;;;13.00;99.90;;;;;;6229046;23;19913;-81
2023/03/23 01:45:55;;;;;;;;;;;12.90;99.90;;;;;;6254079;22;19909;-81
2023/03/23 01:48:33;;;;;;;;;;;12.70;99.90;;;;;;6127032;23;19912;-82
2023/03/23 01:51:04;;;;;;;;;;;12.70;99.90;;;;;;6228134;23;19905;-82
2023/03/23 01:53:31;;;;;;;;;;;12.60;99.90;;;;;;6228454;23;19987;-82
2023/03/23 01:55:58;;;;;;;;;;;12.50;99.90;;;;;;6228493;22;19912;-81
2023/03/23 01:58:26;;;;;;;;;;;12.40;99.90;;;;;;6228553;23;19992;-82
2023/03/23 02:00:55;;;;;;;;;;;12.40;99.90;;;;;;6228475;23;19912;-82
2023/03/23 02:03:23;;;;;;;;;;;12.40;99.90;;;;;;6227508;23;19935;-82
2023/03/23 02:05:49;;;;;;;;;;;12.30;99.90;;;;;;6228120;22;19980;-81
2023/03/23 02:08:16;;;;;;;;;;;12.30;99.90;;;;;;6253013;22;19912;-82
2023/03/23 02:10:41;;;;;;;;;;;12.30;99.90;;;;;;6227722;23;19916;-81
2023/03/23 02:13:08;;;;;;;;;;;12.20;99.90;;;;;;6252881;22;19909;-82
2023/03/23 02:15:48;;;;;;;;;;;12.20;99.90;;;;;;6249076;22;19905;-81
2023/03/23 02:18:16;;;;;;;;;;;12.10;99.90;;;;;;6122543;23;20349;-81
2023/03/23 02:20:52;;;;;;;;;;;12.20;99.90;;;;;;6224183;23;20242;-80
2023/03/23 02:23:17;;;;;;;;;;;12.20;99.90;;;;;;6122194;23;19916;-81
2023/03/23 02:26:02;;;;;;;;;;;12.20;99.90;;;;;;6223609;22;19909;-81
2023/03/23 02:28:46;;;;;;;;;;;12.20;99.90;;;;;;6121975;23;19905;-81
2023/03/23 02:31:17;;;;;;;;;;;12.30;99.90;;;;;;6121928;23;20356;-81
2023/03/23 02:33:49;;;;;;;;;;;12.30;99.90;;;;;;6122316;23;20264;-81
2023/03/23 02:36:14;;;;;;;;;;;12.30;99.90;;;;;;6223233;22;20251;-81
2023/03/23 02:38:59;;;;;;;;;;;12.30;99.90;;;;;;6223740;23;19912;-81
2023/03/23 02:41:27;;;;;;;;;;;12.30;99.90;;;;;;6121475;23;19905;-81
2023/03/23 02:43:53;;;;;;;;;;;12.20;99.90;;;;;;6121987;23;19908;-81
2023/03/23 02:46:20;;;;;;;;;;;12.30;99.90;;;;;;6249439;22;19991;-81
2023/03/23 02:48:48;;;;;;;;;;;12.30;99.90;;;;;;6223324;23;20350;-81
2023/03/23 02:51:14;;;;;;;;;;;12.30;99.90;;;;;;6223039;23;19929;-81
2023/03/23 02:53:41;;;;;;;;;;;12.30;99.90;;;;;;6122126;23;19988;-81
2023/03/23 02:56:08;;;;;;;;;;;12.40;99.90;;;;;;6223416;22;19909;-81
2023/03/23 02:58:34;;;;;;;;;;;12.40;99.90;;;;;;6223409;23;19905;-80
2023/03/23 03:01:13;;;;;;;;;;;12.40;99.90;;;;;;6121828;23;19905;-80
2023/03/23 03:03:39;;;;;;;;;;;12.40;99.90;;;;;;6223637;23;19963;-79
2023/03/23 03:06:23;;;;;;;;;;;12.40;99.90;;;;;;6223116;22;19912;-81
2023/03/23 03:08:52;;;;;;;;;;;12.40;99.90;;;;;;6223715;23;20311;-80
2023/03/23 03:11:18;;;;;;;;;;;12.50;99.90;;;;;;6223147;23;19962;-81
2023/03/23 03:13:51;;;;;;;;;;;12.50;99.90;;;;;;6223345;23;19909;-81
2023/03/23 03:16:22;;;;;;;;;;;12.50;99.90;;;;;;6223914;22;20001;-81
2023/03/23 03:19:00;;;;;;;;;;;12.50;99.90;;;;;;6124597;23;19979;-81
2023/03/23 03:21:28;;;;;;;;;;;12.60;99.90;;;;;;6123695;23;20437;-82
2023/03/23 03:23:55;;;;;;;;;;;12.60;99.90;;;;;;6140216;23;19916;-81
2023/03/23 03:26:26;;;;;;;;;;;12.50;99.90;;;;;;6235004;22;19912;-82
2023/03/23 03:28:52;;;;;;;;;;;12.60;99.90;;;;;;6242575;23;19905;-82
2023/03/23 03:31:19;;;;;;;;;;;12.60;99.90;;;;;;6144021;23;19916;-81
2023/03/23 03:33:45;;;;;;;;;;;12.60;99.90;;;;;;6231207;23;19968;-81
2023/03/23 03:36:15;;;;;;;;;;;12.60;99.90;;;;;;6255740;22;19905;-82
2023/03/23 03:38:45;;;;;;;;;;;12.60;99.90;;;;;;6127571;23;19905;-82
2023/03/23 03:41:11;;;;;;;;;;;12.60;99.90;;;;;;6127302;23;19986;-82
2023/03/23 03:43:36;;;;;;;;;;;12.70;99.90;;;;;;6228775;23;19948;-82
2023/03/23 03:46:02;;;;;;;;;;;12.70;99.90;;;;;;6127735;23;19913;-82
2023/03/23 03:48:28;;;;;;;;;;;12.70;99.90;;;;;;6228962;23;19905;-82
2023/03/23 03:50:56;;;;;;;;;;;12.80;99.90;;;;;;6228156;23;20215;-82
2023/03/23 03:53:25;;;;;;;;;;;12.80;99.90;;;;;;6126929;23;19911;-81
2023/03/23 03:55:55;;;;;;;;;;;12.80;99.90;;;;;;6128101;23;20292;-82
2023/03/23 03:58:21;;;;;;;;;;;12.80;99.90;;;;;;6255938;22;20307;-82
2023/03/23 04:00:47;;;;;;;;;;;12.80;99.90;;;;;;6231455;23;20306;-82
2023/03/23 04:03:13;;;;;;;;;;;12.80;99.90;;;;;;6127801;23;19916;-82
2023/03/23 04:05:39;;;;;;;;;;;12.70;99.90;;;;;;6230539;23;19904;-81
2023/03/23 04:08:04;;;;;;;;;;;12.70;99.90;;;;;;6229600;23;19928;-82
2023/03/23 04:10:31;;;;;;;;;;;12.70;99.90;;;;;;6229851;23;19912;-81
2023/03/23 04:12:56;;;;;;;;;;;12.80;99.90;;;;;;6127141;23;19909;-81
2023/03/23 04:15:22;;;;;;;;;;;12.70;99.90;;;;;;6230000;23;20234;-82
2023/03/23 04:17:48;;;;;;;;;;;12.70;99.90;;;;;;6229637;23;19958;-82
2023/03/23 04:20:19;;;;;;;;;;;12.80;99.90;;;;;;6255359;22;20323;-81
2023/03/23 04:22:48;;;;;;;;;;;12.80;99.90;;;;;;6127951;23;19958;-81
2023/03/23 04:25:15;;;;;;;;;;;12.80;99.90;;;;;;6229379;23;19905;-82
2023/03/23 04:27:45;;;;;;;;;;;12.80;99.90;;;;;;6228107;22;19911;-82
2023/03/23 04:30:12;;;;;;;;;;;12.80;99.90;;;;;;6229835;23;19988;-81
2023/03/23 04:32:41;;;;;;;;;;;12.80;99.90;;;;;;6229280;23;19958;-82
2023/03/23 04:35:08;;;;;;;;;;;12.90;99.90;;;;;;6229182;23;19984;-82
2023/03/23 04:37:34;;;;;;;;;;;12.90;99.90;;;;;;6126227;23;19912;-82
2023/03/23 04:40:01;;;;;;;;;;;12.90;99.90;;;;;;6228205;23;20277;-82
2023/03/23 04:42:30;;;;;;;;;;;12.90;99.90;;;;;;6227932;23;20106;-82
2023/03/23 04:44:58;;;;;;;;;;;12.90;99.90;;;;;;6127045;23;19913;-81
2023/03/23 04:47:29;;;;;;;;;;;12.90;99.90;;;;;;6228202;22;19920;-82
2023/03/23 04:49:56;;;;;;;;;;;12.90;99.90;;;;;;6229819;23;19905;-82
2023/03/23 04:52:21;;;;;;;;;;;12.90;99.90;;;;;;6228279;23;19911;-82
2023/03/23 04:54:47;;;;;;;;;;;12.90;99.90;;;;;;6228164;23;20319;-82
2023/03/23 04:57:13;;;;;;;;;;;13.00;99.90;;;;;;6227997;22;19912;-82
2023/03/23 04:59:38;;;;;;;;;;;13.00;99.90;;;;;;6127029;23;19912;-82
2023/03/23 05:02:03;;;;;;;;;;;13.00;99.90;;;;;;6126927;23;19955;-82
2023/03/23 05:04:29;;;;;;;;;;;13.00;99.90;;;;;;6126307;23;20353;-81
2023/03/23 05:06:54;;;;;;;;;;;13.10;99.90;;;;;;6126770;23;19912;-82
2023/03/23 05:09:20;;;;;;;;;;;13.10;99.90;;;;;;6227653;23;19947;-82
2023/03/23 05:11:46;;;;;;;;;;;13.10;99.90;;;;;;6227513;23;19912;-82
2023/03/23 05:14:11;;;;;;;;;;;13.10;99.90;;;;;;6125251;23;20327;-82
2023/03/23 05:16:37;;;;;;;;;;;13.10;99.90;;;;;;6226941;22;19905;-82
2023/03/23 05:19:04;;;;;;;;;;;13.10;99.90;;;;;;6228011;23;19905;-82
2023/03/23 05:21:30;;;;;;;;;;;13.00;99.90;;;;;;6227539;23;19905;-82
2023/03/23 05:23:55;;;;;;;;;;;13.00;99.90;;;;;;6227540;23;19932;-82
2023/03/23 05:26:21;;;;;;;;;;;13.00;99.90;;;;;;6228067;22;19905;-81
2023/03/23 05:28:48;;;;;;;;;;;13.00;99.90;;;;;;6227100;23;19909;-81
2023/03/23 05:31:13;;;;;;;;;;;13.00;99.90;;;;;;6226984;23;19912;-81
2023/03/23 05:33:39;;;;;;;;;;;13.00;99.90;;;;;;6125853;23;19905;-82
2023/03/23 05:36:06;;;;;;;;;;;13.10;99.90;;;;;;6226837;22;19905;-81
2023/03/23 05:38:32;;;;;;;;;;;13.00;99.90;;;;;;6227033;23;19906;-82
2023/03/23 05:41:01;;;;;;;;;;;13.00;99.90;;;;;;6227046;23;20353;-81
2023/03/23 05:43:26;;;;;;;;;;;13.00;99.90;;;;;;6227583;23;19913;-82
2023/03/23 05:45:52;;;;;;;;;;;13.00;99.90;;;;;;6252072;22;19958;-82
2023/03/23 05:48:17;;;;;;;;;;;13.00;99.90;;;;;;6252360;22;19905;-81
2023/03/23 05:50:43;;;;;;;;;;;13.00;99.90;;;;;;6226965;23;19991;-81
2023/03/23 05:53:08;;;;;;;;;;;13.00;99.90;;;;;;6226986;23;19905;-82
2023/03/23 05:55:34;;;;;;;;;;;13.00;99.90;;;;;;6124903;23;19955;-82
2023/03/23 05:57:59;;;;;;;;;;;13.10;99.90;;;;;;6227438;23;20367;-82
2023/03/23 06:00:28;;;;;;;;;;;13.10;99.90;;;;;;6124810;23;19905;-81
2023/03/23 06:02:56;;;;;;;;;;;13.00;99.90;;;;;;6123745;23;19951;-82
2023/03/23 06:05:22;;;;;;;;;;;13.00;99.90;;;;;;6225948;23;19905;-82
2023/03/23 06:07:47;;;;;;;;;;;13.10;99.90;;;;;;6226256;23;20349;-82
2023/03/23 06:10:13;;;;;;;;;;;13.10;99.90;;;;;;6125210;23;19909;-82
2023/03/23 06:12:39;;;;;;;;;;;13.00;99.90;;;;;;6251604;22;19962;-82
2023/03/23 06:15:06;;;;;;;;;;;13.10;99.90;;;;;;6124276;23;20391;-82
2023/03/23 06:17:32;;;;;;;;;;;13.10;99.90;;;;;;6123308;23;20339;-81
2023/03/23 06:19:57;;;;;;;;;;;13.30;99.90;;;;;;6225520;23;19937;-82
2023/03/23 06:22:23;;;;;;;;;;;13.30;99.90;;;;;;6125045;23;19905;-81
2023/03/23 06:24:48;;;;;;;;;;;13.30;99.90;;;;;;6251314;22;19909;-81
2023/03/23 06:27:16;;;;;;;;;;;13.40;99.90;;;;;;6121763;23;19979;-81
2023/03/23 06:29:41;;;;;;;;;;;13.50;99.90;;;;;;6124688;23;19905;-81
2023/03/23 06:32:07;;;;;;;;;;;13.50;99.90;;;;;;6224851;23;19919;-83
2023/03/23 06:34:32;;;;;;;;;;;13.50;99.90;;;;;;6226004;23;19909;-82
2023/03/23 06:36:58;;;;;;;;;;;13.50;99.90;;;;;;6226817;22;19905;-81
2023/03/23 06:39:23;;;;;;;;;;;13.60;99.90;;;;;;6226269;23;19909;-81
2023/03/23 06:41:49;;;;;;;;;;;13.60;99.90;;;;;;6225673;23;19912;-81
2023/03/23 06:44:15;;;;;;;;;;;13.70;99.90;;;;;;6225892;23;19916;-81
2023/03/23 06:46:41;;;;;;;;;;;13.70;99.90;;;;;;6242265;22;19913;-82
2023/03/23 06:49:06;;;;;;;;;;;13.80;99.90;;;;;;6229097;23;19909;-82
2023/03/23 06:51:32;;;;;;;;;;;13.80;99.90;;;;;;6126409;23;19905;-81
2023/03/23 06:53:57;;;;;;;;;;;13.90;99.90;;;;;;6127632;23;19905;-81
2023/03/23 06:56:23;;;;;;;;;;;13.80;99.90;;;;;;6227905;22;19905;-83
2023/03/23 06:58:49;;;;;;;;;;;13.90;99.90;;;;;;6127725;23;19905;-82
2023/03/23 07:01:15;;;;;;;;;;;13.90;99.90;;;;;;6126511;23;19905;-81
2023/03/23 07:03:41;;;;;;;;;;;13.80;99.90;;;;;;6227435;23;20314;-81
2023/03/23 07:06:07;;;;;;;;;;;13.90;99.90;;;;;;6125571;23;19913;-82
2023/03/23 07:08:33;;;;;;;;;;;14.00;99.90;;;;;;6125955;23;19905;-82
2023/03/23 07:10:58;;;;;;;;;;;14.00;99.90;;;;;;6227471;23;20358;-83
2023/03/23 07:13:25;;;;;;;;;;;14.10;99.90;;;;;;6227577;23;19905;-83
2023/03/23 07:15:50;;;;;;;;;;;14.10;99.90;;;;;;6226952;22;19912;-83
2023/03/23 07:18:16;;;;;;;;;;;14.10;99.90;;;;;;6252697;22;19988;-82
2023/03/23 07:20:43;;;;;;;;;;;14.20;99.90;;;;;;6125675;22;21407;-82
2023/03/23 07:23:09;;;;;;;;;;;14.30;99.90;;;;;;6124982;23;19916;-82
2023/03/23 07:25:35;;;;;;;;;;;14.20;99.90;;;;;;6226632;23;19996;-81
2023/03/23 07:28:02;;;;;;;;;;;14.30;99.90;;;;;;6226221;23;20346;-81
2023/03/23 07:30:29;;;;;;;;;;;14.40;99.90;;;;;;6226323;23;20339;-83
2023/03/23 07:32:54;;;;;;;;;;;14.30;99.90;;;;;;6226010;23;20295;-83
2023/03/23 07:35:20;;;;;;;;;;;14.30;99.90;;;;;;6252688;22;19905;-81
2023/03/23 07:37:48;;;;;;;;;;;14.40;99.90;;;;;;6124956;23;20250;-81
2023/03/23 07:40:14;;;;;;;;;;;14.40;99.90;;;;;;6125002;23;20331;-83
2023/03/23 07:42:43;;;;;;;;;;;14.40;99.90;;;;;;6225688;23;19988;-81
2023/03/23 07:45:11;;;;;;;;;;;14.60;99.90;;;;;;6124471;23;19976;-81
2023/03/23 07:47:36;;;;;;;;;;;14.50;99.90;;;;;;6225506;22;19992;-82
2023/03/23 07:50:02;;;;;;;;;;;14.70;99.90;;;;;;6124716;23;19905;-83
2023/03/23 07:52:27;;;;;;;;;;;14.60;99.90;;;;;;6124512;23;19932;-82
2023/03/23 07:54:53;;;;;;;;;;;14.50;99.90;;;;;;6225326;23;19905;-83
2023/03/23 07:57:18;;;;;;;;;;;14.70;99.90;;;;;;6251136;22;20243;-81
2023/03/23 07:59:44;;;;;;;;;;;14.70;99.90;;;;;;6124007;23;19909;-81
2023/03/23 08:02:10;;;;;;;;;;;14.90;99.90;;;;;;6251117;22;19987;-83
2023/03/23 08:04:37;;;;;;;;;;;14.90;99.90;;;;;;6225776;23;20257;-82
2023/03/23 08:07:04;;;;;;;;;;;15.00;99.90;;;;;;6124524;23;19905;-81
2023/03/23 08:09:30;;;;;;;;;;;15.10;99.90;;;;;;6226034;23;19980;-83
2023/03/23 08:11:55;;;;;;;;;;;15.10;99.90;;;;;;6218818;23;20323;-82
2023/03/23 08:14:21;;;;;;;;;;;15.10;99.90;;;;;;6225488;23;19905;-80
2023/03/23 08:16:48;;;;;;;;;;;15.00;99.90;;;;;;6123260;23;19971;-81
2023/03/23 08:19:13;;;;;;;;;;;15.10;99.90;;;;;;6250260;22;19928;-81
2023/03/23 08:21:38;;;;;;;;;;;15.00;99.90;;;;;;6121056;23;20318;-81
2023/03/23 08:24:05;;;;;;;;;;;15.10;99.90;;;;;;6225210;23;19912;-80
2023/03/23 08:26:30;;;;;;;;;;;15.20;99.90;;;;;;6225011;22;19905;-81
2023/03/23 08:28:57;;;;;;;;;;;15.20;99.90;;;;;;6123027;23;20159;-81
2023/03/23 08:31:23;;;;;;;;;;;15.20;99.90;;;;;;6224435;23;19905;-81
2023/03/23 08:33:48;;;;;;;;;;;15.40;99.90;;;;;;6224926;23;19909;-80
2023/03/23 08:36:14;;;;;;;;;;;15.30;99.90;;;;;;6123433;23;19905;-81
2023/03/23 08:38:39;;;;;;;;;;;15.30;99.90;;;;;;6224559;23;19955;-82
2023/03/23 08:41:06;;;;;;;;;;;15.30;99.90;;;;;;6224747;23;19905;-80
2023/03/23 08:43:32;;;;;;;;;;;15.40;99.90;;;;;;6226471;23;19959;-80
2023/03/23 08:45:58;;;;;;;;;;;15.60;99.90;;;;;;6125058;23;19920;-81
2023/03/23 08:48:23;;;;;;;;;;;15.50;99.90;;;;;;6226255;23;19905;-81
2023/03/23 08:50:49;;;;;;;;;;;15.60;99.90;;;;;;6226621;23;20211;-80
2023/03/23 08:53:15;;;;;;;;;;;15.70;99.90;;;;;;6226105;23;20223;-80
2023/03/23 08:55:42;;;;;;;;;;;15.80;99.90;;;;;;6226349;22;19912;-81
2023/03/23 08:58:08;;;;;;;;;;;15.90;99.90;;;;;;6225534;23;19912;-81
2023/03/23 09:00:34;;;;;;;;;;;15.90;99.90;;;;;;6226018;23;19987;-81
2023/03/23 09:02:59;;;;;;;;;;;16.00;99.90;;;;;;6225700;23;19945;-81
2023/03/23 09:05:26;;;;;;;;;;;16.00;99.90;;;;;;6225851;23;20220;-80
2023/03/23 09:07:53;;;;;;;;;;;16.10;99.90;;;;;;6124159;23;19959;-80
2023/03/23 09:10:19;;;;;;;;;;;16.00;99.90;;;;;;6227302;23;20240;-80
2023/03/23 09:12:45;;;;;;;;;;;15.90;99.90;;;;;;6225373;23;19912;-82
2023/03/23 09:15:12;;;;;;;;;;;16.00;99.90;;;;;;6224467;23;19905;-81
2023/03/23 09:17:38;;;;;;;;;;;16.10;99.90;;;;;;6122588;23;19941;-80
2023/03/23 09:20:11;;;;;;;;;;;16.10;99.90;;;;;;6123006;23;19905;-80
2023/03/23 09:22:44;;;;;;;;;;;16.20;99.90;;;;;;6122593;23;20239;-80
2023/03/23 09:25:11;;;;;;;;;;;16.10;99.90;;;;;;6122576;23;19980;-81
2023/03/23 09:27:38;;;;;;;;;;;16.00;99.90;;;;;;6122221;23;19916;-80
2023/03/23 09:30:10;;;;;;;;;;;16.00;99.90;;;;;;6223979;23;19932;-81
2023/03/23 09:32:36;;;;;;;;;;;16.10;99.90;;;;;;6224435;23;19909;-80
2023/03/23 09:35:02;;;;;;;;;;;16.20;99.90;;;;;;6225146;23;19905;-80
2023/03/23 09:37:28;;;;;;;;;;;16.10;99.90;;;;;;6123043;23;19912;-80
2023/03/23 09:39:54;;;;;;;;;;;16.10;99.90;;;;;;6224753;23;19905;-80
2023/03/23 09:42:35;;;;;;;;;;;16.10;99.90;;;;;;6223989;23;19983;-80
2023/03/23 09:45:15;;;;;;;;;;;16.10;99.90;;;;;;6250139;22;19909;-80
2023/03/23 09:47:41;;;;;;;;;;;16.00;99.90;;;;;;6122635;23;19913;-80
2023/03/23 09:50:09;;;;;;;;;;;16.00;99.90;;;;;;6122673;23;19912;-81
2023/03/23 09:52:47;;;;;;;;;;;16.10;99.90;;;;;;6224985;23;19916;-81
2023/03/23 09:55:14;;;;;;;;;;;16.20;99.90;;;;;;6226343;23;19906;-81
2023/03/23 09:57:53;;;;;;;;;;;16.20;99.90;;;;;;6224972;22;19905;-80
2023/03/23 10:00:25;;;;;;;;;;;16.10;99.90;;;;;;6122129;23;20242;-80
2023/03/23 10:03:09;;;;;;;;;;;16.10;99.90;;;;;;6121519;23;20343;-80
2023/03/23 10:05:51;;;;;;;;;;;15.80;99.90;;;;;;6122509;23;19970;-80
2023/03/23 10:08:18;;;;;;;;;;;15.80;99.90;;;;;;6122339;23;19905;-80
2023/03/23 10:11:04;;;;;;;;;;;16.10;99.90;;;;;;6223668;23;20238;-82
2023/03/23 10:13:50;;;;;;;;;;;16.10;99.90;;;;;;6122257;23;19909;-81
2023/03/23 10:16:18;;;;;;;;;;;16.20;99.90;;;;;;6226279;22;19912;-81
2023/03/23 10:18:49;;;;;;;;;;;16.10;99.90;;;;;;6122799;23;19912;-80
2023/03/23 10:21:17;;;;;;;;;;;16.10;99.90;;;;;;6122130;23;20323;-80
2023/03/23 10:23:51;;;;;;;;;;;15.90;99.90;;;;;;6122703;23;19948;-81
2023/03/23 10:26:17;;;;;;;;;;;15.80;99.90;;;;;;6224500;22;20352;-80
2023/03/23 10:28:43;;;;;;;;;;;15.70;99.90;;;;;;6224858;23;19924;-80
2023/03/23 10:31:18;;;;;;;;;;;15.60;99.90;;;;;;6224271;23;19937;-80
2023/03/23 10:33:45;;;;;;;;;;;15.70;99.90;;;;;;6122965;23;20204;-80
2023/03/23 10:36:17;;;;;;;;;;;15.70;99.90;;;;;;6224057;22;19937;-80
2023/03/23 10:38:44;;;;;;;;;;;15.70;99.90;;;;;;6122813;23;20243;-82
2023/03/23 10:41:14;;;;;;;;;;;15.80;99.90;;;;;;6121916;23;19932;-81
2023/03/23 10:43:41;;;;;;;;;;;15.90;99.90;;;;;;6224511;23;20335;-82
2023/03/23 10:46:29;;;;;;;;;;;15.90;99.90;;;;;;6122362;23;19917;-80
2023/03/23 10:48:56;;;;;;;;;;;15.90;99.90;;;;;;6223634;23;19909;-80
2023/03/23 10:51:26;;;;;;;;;;;15.90;99.90;;;;;;6224063;23;20293;-81
2023/03/23 10:53:57;;;;;;;;;;;15.90;99.90;;;;;;6226133;23;19928;-80
2023/03/23 10:56:22;;;;;;;;;;;16.10;99.90;;;;;;6224149;22;19905;-81
2023/03/23 10:58:48;;;;;;;;;;;16.30;99.90;;;;;;6224587;23;19905;-80
2023/03/23 11:01:14;;;;;;;;;;;16.50;99.90;;;;;;6223925;23;19905;-81
2023/03/23 11:03:42;;;;;;;;;;;16.70;99.90;;;;;;6223205;23;19909;-82
2023/03/23 11:06:12;;;;;;;;;;;16.90;99.90;;;;;;6122333;23;19913;-80
2023/03/23 11:08:46;;;;;;;;;;;16.90;99.90;;;;;;6122055;23;20269;-80
2023/03/23 11:11:12;;;;;;;;;;;16.90;99.90;;;;;;6121311;23;19912;-80
2023/03/23 11:13:39;;;;;;;;;;;16.70;99.90;;;;;;6121764;23;20243;-80
2023/03/23 11:16:08;;;;;;;;;;;16.80;99.90;;;;;;6223699;22;20238;-80
2023/03/23 11:18:37;;;;;;;;;;;16.80;99.90;;;;;;6223977;23;19909;-80
2023/03/23 11:21:05;;;;;;;;;;;16.80;99.90;;;;;;6121963;23;19928;-80
2023/03/23 11:23:35;;;;;;;;;;;16.80;99.90;;;;;;6224042;23;20297;-80
2023/03/23 11:26:07;;;;;;;;;;;16.90;99.90;;;;;;6122261;23;19905;-80
2023/03/23 11:28:34;;;;;;;;;;;16.90;99.90;;;;;;6122085;23;19905;-80
2023/03/23 11:31:01;;;;;;;;;;;16.90;99.90;;;;;;6230171;23;19939;-81
2023/03/23 11:33:31;;;;;;;;;;;16.80;99.90;;;;;;6133631;23;19889;-83
2023/03/23 11:35:57;;;;;;;;;;;16.70;99.90;;;;;;6231836;22;20404;-80
2023/03/23 11:38:23;;;;;;;;;;;16.60;99.90;;;;;;6138593;22;19913;-81
2023/03/23 11:40:50;;;;;;;;;;;16.50;99.90;;;;;;6127397;23;19980;-81
2023/03/23 11:43:21;;;;;;;;;;;16.40;99.90;;;;;;6228071;23;20089;-82
2023/03/23 11:45:50;;;;;;;;;;;16.00;99.90;;;;;;6226432;22;20311;-81
2023/03/23 11:48:24;;;;;;;;;;;15.90;99.90;;;;;;6228703;23;19905;-82
2023/03/23 11:50:50;;;;;;;;;;;15.50;99.90;;;;;;6229192;23;19904;-82
2023/03/23 11:53:23;;;;;;;;;;;15.20;99.90;;;;;;6228661;23;20339;-82
2023/03/23 11:55:50;;;;;;;;;;;15.30;99.90;;;;;;6126544;23;19912;-81
2023/03/23 11:58:17;;;;;;;;;;;15.70;99.90;;;;;;6125961;23;20367;-81
2023/03/23 12:00:51;;;;;;;;;;;17.00;99.90;;;;;;6227228;23;19911;-81
2023/03/23 12:03:26;;;;;;;;;;;18.90;99.90;;;;;;6124307;23;20313;-81
2023/03/23 12:05:55;;;;;;;;;;;20.90;99.90;;;;;;6226405;22;20354;-81
2023/03/23 12:08:27;;;;;;;;;;;21.80;99.90;;;;;;6228027;23;19955;-81
2023/03/23 12:10:58;;;;;;;;;;;22.20;99.90;;;;;;6126068;23;19905;-84
2023/03/23 12:13:52;;;;;;;;;;;22.50;99.90;;;;;;6228080;23;20324;-83
2023/03/23 12:16:31;;;;;;;;;;;22.80;99.90;;;;;;6125814;23;19912;-81
2023/03/23 12:19:16;;;;;;;;;;;22.70;99.90;;;;;;6228612;23;19925;-81
2023/03/23 12:21:51;;;;;;;;;;;22.60;99.90;;;;;;6228317;23;19911;-81
2023/03/23 12:24:25;;;;;;;;;;;21.30;99.90;;;;;;6229662;23;19913;-83
2023/03/23 12:27:03;;;;;;;;;;;21.80;99.90;;;;;;6127256;23;20319;-83
2023/03/23 12:29:47;;;;;;;;;;;22.10;99.90;;;;;;6128826;23;20354;-83
2023/03/23 12:32:28;;;;;;;;;;;21.90;99.90;;;;;;6233597;23;20278;-82
2023/03/23 12:35:13;;;;;;;;;;;21.40;99.90;;;;;;6139147;23;19947;-82
2023/03/23 12:37:38;;;;;;;;;;;20.50;99.90;;;;;;6231774;22;19912;-82
2023/03/23 12:40:04;;;;;;;;;;;20.30;99.90;;;;;;6229798;23;20383;-82
2023/03/23 12:42:43;;;;;;;;;;;20.30;99.90;;;;;;6231067;23;19905;-83
2023/03/23 12:45:38;;;;;;;;;;;19.70;99.90;;;;;;6232932;23;19909;-84
2023/03/23 12:48:05;;;;;;;;;;;22.40;99.90;;;;;;6139188;23;19925;-83
2023/03/23 12:50:35;;;;;;;;;;;23.50;99.90;;;;;;6132255;23;19912;-83
2023/03/23 12:53:11;;;;;;;;;;;23.50;97.20;;;;;;6234147;23;19905;-83
2023/03/23 12:55:44;;;;;;;;;;;21.70;98.20;;;;;;6234033;23;19940;-82
2023/03/23 12:58:18;;;;;;;;;;;20.80;99.90;;;;;;6229842;23;20326;-82
2023/03/23 13:00:53;;;;;;;;;;;20.60;99.90;;;;;;6127372;23;20294;-82
2023/03/23 13:03:29;;;;;;;;;;;20.00;99.90;;;;;;6229357;23;19909;-82
2023/03/23 13:06:15;;;;;;;;;;;19.50;99.90;;;;;;6126600;23;19939;-81
2023/03/23 13:08:44;;;;;;;;;;;19.20;99.90;;;;;;6221654;23;19909;-81
2023/03/23 13:11:28;;;;;;;;;;;18.50;99.90;;;;;;6227304;23;19984;-82
2023/03/23 13:13:56;;;;;;;;;;;18.10;99.90;;;;;;6227869;23;20219;-82
2023/03/23 13:16:41;;;;;;;;;;;17.80;99.90;;;;;;6125050;23;20277;-81
2023/03/23 13:19:07;;;;;;;;;;;17.70;99.90;;;;;;6225284;23;19905;-82
2023/03/23 13:21:44;;;;;;;;;;;17.50;99.90;;;;;;6225561;23;19920;-81
2023/03/23 13:24:16;;;;;;;;;;;17.20;99.90;;;;;;6124778;23;19916;-81
2023/03/23 13:26:42;;;;;;;;;;;17.00;99.90;;;;;;6226006;22;19905;-81
2023/03/23 13:29:18;;;;;;;;;;;17.10;99.90;;;;;;6227130;23;19975;-81
2023/03/23 13:31:44;;;;;;;;;;;17.10;99.90;;;;;;6123334;23;19904;-80
2023/03/23 13:34:10;;;;;;;;;;;17.20;99.90;;;;;;6226224;23;19905;-80
2023/03/23 13:36:37;;;;;;;;;;;17.00;99.90;;;;;;6226082;22;19916;-81
2023/03/23 13:39:04;;;;;;;;;;;17.00;99.90;;;;;;6226668;23;20250;-81
2023/03/23 13:41:30;;;;;;;;;;;17.00;99.90;;;;;;6123826;23;20247;-81
2023/03/23 13:44:15;;;;;;;;;;;16.70;99.90;;;;;;6226636;23;19913;-81
2023/03/23 13:46:40;;;;;;;;;;;16.40;99.90;;;;;;6225252;22;19913;-81
2023/03/23 13:49:09;;;;;;;;;;;15.90;99.90;;;;;;6227110;23;19916;-80
2023/03/23 13:51:44;;;;;;;;;;;15.60;99.90;;;;;;6123400;23;20326;-80
2023/03/23 13:54:18;;;;;;;;;;;15.60;99.90;;;;;;6124176;23;19928;-80
2023/03/23 13:56:52;;;;;;;;;;;16.00;99.90;;;;;;6123426;23;19912;-81
2023/03/23 13:59:27;;;;;;;;;;;16.80;99.90;;;;;;6124808;23;19905;-80
2023/03/23 14:01:53;;;;;;;;;;;16.90;99.90;;;;;;6225628;23;20007;-81
2023/03/23 14:04:19;;;;;;;;;;;17.30;99.90;;;;;;6124594;23;19913;-80
2023/03/23 14:06:47;;;;;;;;;;;17.80;99.90;;;;;;6123832;23;20289;-82
2023/03/23 14:09:16;;;;;;;;;;;18.20;99.90;;;;;;6225281;23;19958;-81
2023/03/23 14:11:55;;;;;;;;;;;18.00;99.90;;;;;;6123213;23;20331;-81
2023/03/23 14:14:24;;;;;;;;;;;17.80;99.90;;;;;;6225921;23;19916;-82
2023/03/23 14:16:53;;;;;;;;;;;18.20;99.90;;;;;;6123276;23;20152;-80
2023/03/23 14:19:21;;;;;;;;;;;18.60;99.90;;;;;;6123581;23;20342;-80
2023/03/23 14:21:52;;;;;;;;;;;18.70;99.90;;;;;;6224072;23;19912;-81
2023/03/23 14:24:22;;;;;;;;;;;18.60;99.90;;;;;;6122934;23;20385;-82